Time;durP1;ratioP1;P1;durP2;ratioP2;P2;SDS_P1;SDS_P2;PMS_P1;PMS_P2;Temp;Humidity;BMP_temperature;BMP_pressure;BME280_temperature;BME280_humidity;BME280_pressure;Samples;Min_cycle;Max_cycle;Signal;HPM_P1;HPM_P2
2023/01/05 00:01:50;;;;;;;24.38;5.15;;;11.40;99.90;;;-144.05;69.52;125687.94;5013912;28;20393;-81
2023/01/05 00:04:16;;;;;;;23.17;5.10;;;11.50;99.90;;;-144.05;69.77;125687.94;5030478;28;20033;-81
2023/01/05 00:06:44;;;;;;;20.70;4.95;;;11.50;99.90;;;-144.05;69.68;125687.94;5014040;28;20076;-80
2023/01/05 00:09:17;;;;;;;24.17;4.90;;;11.50;99.90;;;-144.05;69.72;125687.94;5012984;28;20038;-81
2023/01/05 00:23:07;;;;;;;23.88;5.10;;;11.40;99.90;;;-144.05;70.14;125687.94;5013603;28;20476;-80
2023/01/05 00:25:39;;;;;;;39.60;5.90;;;11.40;99.90;;;-144.05;69.64;125687.94;5013378;28;20042;-84
2023/01/05 00:28:05;;;;;;;20.17;4.55;;;11.40;99.90;;;-144.05;69.81;125687.94;5011447;28;20045;-82
2023/01/05 00:30:41;;;;;;;25.73;5.57;;;11.40;99.90;;;-144.05;69.84;125687.94;5012981;28;20527;-79
2023/01/05 00:33:14;;;;;;;27.00;4.90;;;11.40;99.90;;;-144.05;69.95;125687.94;5011578;28;20062;-81
2023/01/05 00:35:41;;;;;;;26.88;5.47;;;11.40;99.90;;;-144.05;69.55;125687.94;5015649;28;20057;-83
2023/01/05 00:38:08;;;;;;;26.20;4.90;;;11.30;99.90;;;-144.05;69.06;125687.94;5016153;28;20065;-81
2023/01/05 00:40:35;;;;;;;28.45;5.00;;;11.40;99.90;;;-144.05;69.42;125687.94;5017491;28;20061;-78
2023/01/05 00:43:01;;;;;;;20.65;4.57;;;11.30;99.90;;;-144.05;69.58;125687.94;5018939;28;20124;-81
2023/01/05 00:45:27;;;;;;;22.70;4.93;;;11.30;99.90;;;-144.05;69.66;125687.94;5040084;28;20058;-80
2023/01/05 00:47:54;;;;;;;21.58;4.70;;;11.30;99.90;;;-144.05;68.88;125687.94;5034491;28;20124;-79
2023/01/05 00:50:22;;;;;;;23.52;5.40;;;11.40;99.90;;;-144.05;68.94;125687.94;5020948;28;20041;-80
2023/01/05 00:52:48;;;;;;;23.25;5.38;;;11.30;99.90;;;-144.05;68.37;125687.94;5022015;28;20026;-81
2023/01/05 00:55:14;;;;;;;22.40;5.78;;;11.40;99.90;;;-144.05;68.49;125687.94;5018665;28;20025;-82
2023/01/05 00:57:40;;;;;;;20.00;4.75;;;11.30;99.90;;;-144.05;68.78;125687.94;5031854;28;20038;-82
2023/01/05 01:00:14;;;;;;;18.23;4.50;;;11.20;99.90;;;-144.05;69.09;125687.94;5016264;28;20045;-83
2023/01/05 01:02:40;;;;;;;20.73;5.55;;;11.20;99.90;;;-144.05;68.79;125687.94;5015955;28;20037;-83
2023/01/05 01:05:07;;;;;;;22.63;5.20;;;11.20;99.90;;;-144.05;68.93;125687.94;5016309;28;20562;-80
2023/01/05 01:07:33;;;;;;;20.17;4.60;;;11.30;99.90;;;-144.05;69.50;125687.94;5016081;28;20034;-82
2023/01/05 01:09:59;;;;;;;24.25;5.32;;;11.20;99.90;;;-144.05;69.37;125687.94;5015762;28;20036;-81
2023/01/05 01:12:25;;;;;;;25.08;5.47;;;11.20;99.90;;;-144.05;69.51;125687.94;5013999;28;20030;-81
2023/01/05 01:14:50;;;;;;;27.30;6.15;;;11.10;99.90;;;-144.05;69.63;125687.94;5013798;28;20044;-81
2023/01/05 01:17:17;;;;;;;17.83;4.72;;;11.10;99.90;;;-144.05;70.36;125687.94;5015779;28;20053;-79
2023/01/05 01:19:45;;;;;;;22.50;5.20;;;11.00;99.90;;;-144.05;70.09;125687.94;5015591;28;20423;-83
2023/01/05 01:22:12;;;;;;;28.88;7.18;;;11.00;99.90;;;-144.05;69.63;125687.94;5013495;28;20037;-82
2023/01/05 01:24:38;;;;;;;30.05;5.95;;;11.00;99.90;;;-144.05;69.99;125687.94;5015271;28;20049;-82
2023/01/05 01:27:03;;;;;;;20.52;6.10;;;10.90;99.90;;;-144.05;69.73;125687.94;5030480;28;20064;-81
2023/01/05 01:29:30;;;;;;;27.33;5.63;;;10.90;99.90;;;-144.05;70.19;125687.94;5013093;28;20185;-80
2023/01/05 01:31:56;;;;;;;25.20;6.63;;;10.90;99.90;;;-144.05;70.09;125687.94;5015600;28;20057;-81
2023/01/05 01:34:23;;;;;;;24.23;6.15;;;10.90;99.90;;;-144.05;69.93;125687.94;5014593;28;20445;-80
2023/01/05 01:36:49;;;;;;;30.05;5.43;;;10.90;99.90;;;-144.05;70.15;125687.94;5014873;28;20033;-82
2023/01/05 01:39:15;;;;;;;23.60;5.07;;;10.90;99.90;;;-144.05;69.85;125687.94;5014595;28;20022;-81
2023/01/05 01:41:41;;;;;;;24.10;6.07;;;10.90;99.90;;;-144.05;69.80;125687.94;5016702;28;20093;-81
2023/01/05 01:45:01;;;;;;;23.98;5.70;;;11.00;99.90;;;-144.05;69.50;125687.94;5014395;28;20021;-80
2023/01/05 01:47:42;;;;;;;31.98;5.07;;;11.00;99.90;;;-144.05;69.77;125687.94;5013880;28;20049;-83
2023/01/05 01:50:20;;;;;;;28.33;6.47;;;11.00;99.90;;;-144.05;69.95;125687.94;5012596;28;20160;-79
2023/01/05 01:52:53;;;;;;;31.27;5.85;;;10.90;99.90;;;-144.05;69.52;125687.94;5014246;28;20025;-79
2023/01/05 01:55:20;;;;;;;23.77;5.80;;;11.00;99.90;;;-144.05;69.39;125687.94;5013523;28;20113;-81
2023/01/05 01:57:49;;;;;;;27.70;4.88;;;11.00;99.90;;;-144.05;70.02;125687.94;5014509;28;20689;-80
2023/01/05 02:00:17;;;;;;;25.40;4.80;;;11.00;99.90;;;-144.05;69.26;125687.94;5013865;28;20463;-83
2023/01/05 02:02:48;;;;;;;26.48;4.75;;;11.00;99.90;;;-144.05;69.44;125687.94;5013816;28;20394;-81
2023/01/05 02:05:20;;;;;;;30.13;5.72;;;11.00;99.90;;;-144.05;69.62;125687.94;5013782;28;20030;-80
2023/01/05 02:07:47;;;;;;;26.83;5.65;;;11.00;99.90;;;-144.05;69.64;125687.94;5013869;28;20121;-82
2023/01/05 02:10:34;;;;;;;34.38;6.45;;;11.00;99.90;;;-144.05;69.68;125687.94;5013738;28;20112;-81
2023/01/05 02:13:42;;;;;;;20.77;4.78;;;11.00;99.90;;;-144.05;70.10;125687.94;5014418;28;20033;-80
2023/01/05 02:16:23;;;;;;;23.85;4.80;;;10.90;99.90;;;-144.05;70.22;125687.94;5013926;28;20073;-83
2023/01/05 02:19:39;;;;;;;22.85;4.93;;;10.90;99.90;;;-144.05;70.09;125687.94;5014048;28;20064;-81
2023/01/05 02:22:49;;;;;;;28.75;5.88;;;10.90;99.90;;;-144.05;70.85;125687.94;5013902;28;20539;-82
2023/01/05 02:26:00;;;;;;;23.65;5.57;;;11.00;99.90;;;-144.05;70.44;125687.94;5013578;28;20032;-79
2023/01/05 02:29:30;;;;;;;21.35;4.93;;;10.90;99.90;;;-144.05;70.69;125687.94;5013713;28;20498;-80
2023/01/05 02:32:33;;;;;;;22.42;4.95;;;10.90;99.90;;;-144.05;70.40;125687.94;5013131;28;20030;-82
2023/01/05 02:36:00;;;;;;;26.58;5.97;;;10.90;99.90;;;-144.05;71.09;125687.94;5013349;28;20049;-79
2023/01/05 02:39:17;;;;;;;29.52;5.25;;;10.90;99.90;;;-144.05;70.47;125687.94;5012791;28;20057;-82
2023/01/05 02:42:07;;;;;;;21.52;5.00;;;10.90;99.90;;;-144.05;70.47;125687.94;5013405;28;20034;-80
2023/01/05 02:44:33;;;;;;;18.67;5.68;;;10.80;99.90;;;-144.05;70.36;125687.94;5013579;28;20040;-83
2023/01/05 02:47:27;;;;;;;20.95;5.72;;;10.80;99.90;;;-144.05;70.42;125687.94;5013300;28;20389;-82
2023/01/05 02:50:11;;;;;;;22.77;4.47;;;10.80;99.90;;;-144.05;70.22;125687.94;5011667;28;20485;-80
2023/01/05 02:52:59;;;;;;;26.25;5.68;;;10.90;99.90;;;-144.05;70.83;125687.94;5013230;28;20033;-83
2023/01/05 02:55:53;;;;;;;26.10;5.82;;;10.80;99.90;;;-144.05;71.21;125687.94;5028139;28;20030;-81
2023/01/05 02:58:33;;;;;;;20.98;4.25;;;10.80;99.90;;;-144.05;70.98;125687.94;5008263;28;20049;-81
2023/01/05 03:01:34;;;;;;;26.58;5.82;;;10.80;99.90;;;-144.05;71.16;125687.94;5012033;28;20037;-80
2023/01/05 03:04:13;;;;;;;26.80;4.90;;;10.70;99.90;;;-144.05;70.99;125687.94;5013032;28;20030;-81
2023/01/05 03:06:55;;;;;;;21.02;5.30;;;10.70;99.90;;;-144.05;70.75;125687.94;5013595;28;20058;-81
2023/01/05 03:09:35;;;;;;;21.05;5.72;;;10.60;99.90;;;-144.05;71.02;125687.94;5012830;28;20105;-82
2023/01/05 03:15:29;;;;;;;24.80;5.35;;;10.70;99.90;;;-144.05;70.78;125687.94;5013422;28;20115;-82
2023/01/05 03:18:04;;;;;;;27.17;6.50;;;10.60;99.90;;;-144.05;70.95;125687.94;5012954;28;20053;-81
2023/01/05 03:20:37;;;;;;;26.75;4.90;;;10.60;99.90;;;-144.05;70.34;125687.94;5011791;28;20378;-81
2023/01/05 03:38:14;;;;;;;17.80;4.55;;;10.70;99.90;;;-144.05;71.82;125687.94;5013361;28;19959;-83
2023/01/05 03:40:43;;;;;;;23.45;5.22;;;10.60;99.90;;;-144.05;72.40;125687.94;5011882;28;20026;-81
2023/01/05 03:43:09;;;;;;;23.88;5.35;;;10.50;99.90;;;-144.05;72.59;125687.94;5011870;28;20026;-81
2023/01/05 03:45:53;;;;;;;21.40;5.65;;;10.40;99.90;;;-144.05;73.68;125687.94;5028607;28;20084;-79
2023/01/05 03:48:21;;;;;;;29.58;5.85;;;10.40;99.90;;;-144.05;75.20;125687.94;5029698;28;20038;-80
2023/01/05 03:50:47;;;;;;;25.73;6.05;;;10.30;99.90;;;-144.05;74.86;125687.94;5011218;28;20080;-80
2023/01/05 03:53:13;;;;;;;35.53;6.18;;;10.30;99.90;;;-144.05;75.21;125687.94;5011033;28;20138;-82
2023/01/05 03:55:39;;;;;;;33.58;6.15;;;10.20;99.90;;;-144.05;76.14;125687.94;5012300;28;20022;-83
2023/01/05 03:58:05;;;;;;;28.65;6.60;;;10.10;99.90;;;-144.05;75.72;125687.94;5012852;28;20026;-80
2023/01/05 04:00:31;;;;;;;27.83;5.95;;;10.20;99.90;;;-144.05;75.45;125687.94;5012557;28;20109;-82
2023/01/05 04:02:57;;;;;;;28.45;7.13;;;10.20;99.90;;;-144.05;75.73;125687.94;5011265;28;20053;-81
2023/01/05 04:05:23;;;;;;;30.75;6.38;;;10.20;99.90;;;-144.05;76.02;125687.94;5011840;28;20066;-81
2023/01/05 04:07:49;;;;;;;34.97;6.93;;;10.20;99.90;;;-144.05;75.80;125687.94;5013055;28;20057;-81
2023/01/05 04:10:15;;;;;;;60.78;16.05;;;10.20;99.90;;;-144.05;75.46;125687.94;5016999;28;20034;-79
2023/01/05 04:12:41;;;;;;;32.78;6.47;;;10.20;99.90;;;-144.05;76.50;125687.94;5016272;28;20639;-80
2023/01/05 04:15:08;;;;;;;27.48;8.65;;;10.20;99.90;;;-144.05;77.67;125687.94;5017841;28;20084;-82
2023/01/05 04:17:34;;;;;;;28.80;8.05;;;10.10;99.90;;;-144.05;77.18;125687.94;5017348;28;20145;-79
2023/01/05 04:20:00;;;;;;;30.98;9.20;;;10.10;99.90;;;-144.05;77.81;125687.94;5017621;28;20563;-79
2023/01/05 04:22:26;;;;;;;27.38;7.05;;;10.00;99.90;;;-144.05;78.15;125687.94;5032243;28;20037;-80
2023/01/05 04:24:52;;;;;;;33.88;7.47;;;10.00;99.90;;;-144.05;78.77;125687.94;5015255;28;20025;-81
2023/01/05 04:27:18;;;;;;;26.30;6.10;;;10.00;99.90;;;-144.05;77.72;125687.94;5014964;28;20262;-81
2023/01/05 04:29:43;;;;;;;25.48;6.40;;;10.00;99.90;;;-144.05;78.00;125687.94;5015339;28;20502;-83
2023/01/05 04:32:09;;;;;;;36.10;8.82;;;10.00;99.90;;;-144.05;78.80;125687.94;5016636;28;20037;-81
2023/01/05 04:34:35;;;;;;;25.88;8.00;;;10.00;99.90;;;-144.05;78.30;125687.94;5022861;28;20187;-79
2023/01/05 04:37:01;;;;;;;42.72;7.75;;;10.00;99.90;;;-144.05;78.55;125687.94;5031727;28;20106;-80
2023/01/05 04:39:27;;;;;;;29.27;9.63;;;10.00;99.90;;;-144.05;78.80;125687.94;5031162;28;20025;-78
2023/01/05 04:41:53;;;;;;;31.42;7.03;;;9.90;99.90;;;-144.05;79.09;125687.94;5021482;28;20026;-82
2023/01/05 04:44:19;;;;;;;27.65;9.55;;;10.00;99.90;;;-144.05;78.63;125687.94;5016298;28;20034;-82
2023/01/05 04:46:45;;;;;;;24.67;6.78;;;10.00;99.90;;;-144.05;78.95;125687.94;5016037;28;20037;-81
2023/01/05 04:49:11;;;;;;;28.63;7.30;;;10.00;99.90;;;-144.05;78.87;125687.94;5017072;28;20473;-80
2023/01/05 04:51:37;;;;;;;38.42;7.90;;;10.00;99.90;;;-144.05;79.18;125687.94;5016027;28;20481;-80
2023/01/05 04:54:03;;;;;;;40.67;12.50;;;9.90;99.90;;;-144.05;78.93;125687.94;5017244;28;20045;-82
2023/01/05 04:56:29;;;;;;;32.28;8.02;;;9.90;99.90;;;-144.05;78.72;125687.94;5017218;28;20427;-80
2023/01/05 04:58:55;;;;;;;26.45;7.07;;;9.90;99.90;;;-144.05;79.10;125687.94;5032302;28;20052;-82
2023/01/05 05:01:21;;;;;;;33.63;8.15;;;9.90;99.90;;;-144.05;78.92;125687.94;5017426;28;20033;-80
2023/01/05 05:03:46;;;;;;;34.65;8.10;;;9.90;99.90;;;-144.05;78.80;125687.94;5019045;28;20046;-83
2023/01/05 05:06:12;;;;;;;25.88;7.90;;;9.90;99.90;;;-144.05;78.91;125687.94;5022044;28;20030;-80
2023/01/05 05:08:38;;;;;;;35.90;7.05;;;9.90;99.90;;;-144.05;79.38;125687.94;5017444;28;20036;-82
2023/01/05 05:11:05;;;;;;;31.75;7.15;;;9.90;99.90;;;-144.05;78.62;125687.94;5015783;28;20049;-82
2023/01/05 05:13:31;;;;;;;29.85;7.88;;;9.90;99.90;;;-144.05;78.75;125687.94;5015890;28;20030;-83
2023/01/05 05:15:57;;;;;;;23.38;7.57;;;9.90;99.90;;;-144.05;78.83;125687.94;5016686;28;20045;-82
2023/01/05 05:18:23;;;;;;;31.40;7.68;;;9.90;99.90;;;-144.05;77.84;125687.94;5017907;28;20041;-82
2023/01/05 05:20:52;;;;;;;37.53;8.40;;;9.90;99.90;;;-144.05;78.36;125687.94;5032349;28;20172;-81
2023/01/05 05:23:19;;;;;;;30.13;8.00;;;9.90;99.90;;;-144.05;78.46;125687.94;5016227;28;20033;-83
2023/01/05 05:25:50;;;;;;;33.10;7.95;;;9.90;99.90;;;-144.05;78.39;125687.94;5016688;28;20492;-82
2023/01/05 05:28:16;;;;;;;32.30;7.70;;;9.90;99.90;;;-144.05;78.53;125687.94;5016695;28;20527;-83
2023/01/05 05:30:42;;;;;;;28.55;7.15;;;9.90;99.90;;;-144.05;78.10;125687.94;5018032;28;20116;-81
2023/01/05 05:33:08;;;;;;;29.48;7.13;;;9.90;99.90;;;-144.05;78.59;125687.94;5017371;28;20113;-81
2023/01/05 05:35:34;;;;;;;28.33;8.05;;;9.90;99.90;;;-144.05;78.66;125687.94;5035358;28;20037;-82
2023/01/05 05:38:00;;;;;;;32.97;6.88;;;9.90;99.90;;;-144.05;78.61;125687.94;5021105;28;20034;-82
2023/01/05 05:40:27;;;;;;;34.65;9.13;;;10.00;99.90;;;-144.05;79.18;125687.94;5017464;28;20026;-80
2023/01/05 05:42:53;;;;;;;29.00;7.03;;;9.90;99.90;;;-144.05;79.38;125687.94;5017712;28;20084;-82
2023/01/05 05:45:19;;;;;;;27.23;7.68;;;9.90;99.90;;;-144.05;80.14;125687.94;5017578;28;20057;-82
2023/01/05 05:47:45;;;;;;;37.58;7.80;;;9.90;99.90;;;-144.05;80.87;125687.94;5017074;28;20108;-82
2023/01/05 05:50:11;;;;;;;37.42;8.80;;;9.80;99.90;;;-144.05;80.75;125687.94;5019705;28;20113;-82
2023/01/05 05:52:37;;;;;;;38.38;8.75;;;9.80;99.90;;;-144.05;81.09;125687.94;5019939;28;20030;-82
2023/01/05 05:55:04;;;;;;;30.05;7.25;;;9.80;99.90;;;-144.05;81.29;125687.94;5020983;28;20559;-83
2023/01/05 05:57:30;;;;;;;20.98;6.35;;;9.80;99.90;;;-144.05;81.67;125687.94;5021937;28;20556;-84
2023/01/05 05:59:56;;;;;;;29.38;7.65;;;9.80;99.90;;;-144.05;81.67;125687.94;5021403;28;20110;-84
2023/01/05 06:02:22;;;;;;;29.52;7.82;;;9.80;99.90;;;-144.05;81.92;125687.94;5021050;28;20206;-81
2023/01/05 06:04:48;;;;;;;25.67;6.57;;;9.70;99.90;;;-144.05;82.66;125687.94;5020375;28;20409;-82
2023/01/05 06:07:14;;;;;;;48.75;8.32;;;9.70;99.90;;;-144.05;82.29;125687.94;5018757;28;20056;-81
2023/01/05 06:09:39;;;;;;;28.95;7.53;;;9.70;99.90;;;-144.05;82.44;125687.94;5015958;28;20037;-80
2023/01/05 06:12:06;;;;;;;29.60;6.82;;;9.80;99.90;;;-144.05;81.93;125687.94;5015580;28;20022;-81
2023/01/05 06:14:32;;;;;;;30.63;7.32;;;9.70;99.90;;;-144.05;82.23;125687.94;5015930;28;20034;-80
2023/01/05 06:16:58;;;;;;;31.45;8.48;;;9.70;99.90;;;-144.05;83.05;125687.94;5014896;28;20045;-80
2023/01/05 06:19:23;;;;;;;30.10;7.40;;;9.70;99.90;;;-144.05;82.81;125687.94;5016559;28;20030;-79
2023/01/05 06:21:49;;;;;;;31.27;7.60;;;9.60;99.90;;;-144.05;83.10;125687.94;5016772;28;20022;-79
2023/01/05 06:24:15;;;;;;;35.20;7.32;;;9.60;99.90;;;-144.05;83.57;125687.94;5015540;28;20492;-82
2023/01/05 06:26:41;;;;;;;25.50;6.72;;;9.60;99.90;;;-144.05;84.06;125687.94;5013921;28;20098;-81
2023/01/05 06:29:07;;;;;;;38.20;8.98;;;9.60;99.90;;;-144.05;84.13;125687.94;5015070;28;20037;-80
2023/01/05 06:31:32;;;;;;;39.67;8.45;;;9.60;99.90;;;-144.05;83.76;125687.94;5015468;28;20096;-82
2023/01/05 06:33:58;;;;;;;21.50;6.78;;;9.60;99.90;;;-144.05;84.31;125687.94;5015631;28;20063;-81
2023/01/05 06:36:24;;;;;;;30.77;8.07;;;9.60;99.90;;;-144.05;84.29;125687.94;5030849;28;20041;-82
2023/01/05 06:38:50;;;;;;;29.70;8.52;;;9.60;99.90;;;-144.05;84.60;125687.94;5016059;28;20025;-83
2023/01/05 06:41:16;;;;;;;28.73;7.00;;;9.60;99.90;;;-144.05;84.08;125687.94;5014948;28;20497;-82
2023/01/05 06:43:41;;;;;;;30.25;8.27;;;9.60;99.90;;;-144.05;83.82;125687.94;5015306;28;20041;-81
2023/01/05 06:46:07;;;;;;;42.95;9.20;;;9.60;99.90;;;-144.05;84.04;125687.94;5015445;28;20033;-79
2023/01/05 06:48:33;;;;;;;30.48;9.93;;;9.60;99.90;;;-144.05;84.16;125687.94;5018939;28;20504;-83
2023/01/05 06:50:59;;;;;;;34.25;8.18;;;9.60;99.90;;;-144.05;84.46;125687.94;5017498;28;20044;-80
2023/01/05 06:53:25;;;;;;;34.90;9.88;;;9.60;99.90;;;-144.05;84.80;125687.94;5015608;28;20038;-81
2023/01/05 06:55:50;;;;;;;29.30;10.52;;;9.60;99.90;;;-144.05;84.29;125687.94;5017185;28;20033;-81
2023/01/05 06:58:16;;;;;;;30.35;8.13;;;9.50;99.90;;;-144.05;85.48;125687.94;5014253;28;20084;-80
2023/01/05 07:00:42;;;;;;;32.30;9.23;;;9.50;99.90;;;-144.05;85.43;125687.94;5020306;28;20034;-85
2023/01/05 07:03:13;;;;;;;30.90;8.02;;;9.50;99.90;;;-144.05;85.29;125687.94;5021636;28;20054;-82
2023/01/05 07:05:41;;;;;;;35.28;9.38;;;9.50;99.90;;;-144.05;85.56;125687.94;5032135;28;20486;-84
2023/01/05 07:08:07;;;;;;;32.78;8.80;;;9.50;99.90;;;-144.05;85.56;125687.94;5032592;28;20030;-80
2023/01/05 07:10:32;;;;;;;32.70;8.63;;;9.50;99.90;;;-144.05;85.66;125687.94;5014504;28;20044;-80
2023/01/05 07:12:58;;;;;;;38.05;9.48;;;9.50;99.90;;;-144.05;85.55;125687.94;5014783;28;20425;-82
2023/01/05 07:15:24;;;;;;;27.15;8.60;;;9.50;99.90;;;-144.05;85.98;125687.94;5014268;28;20512;-81
2023/01/05 07:17:50;;;;;;;34.72;9.75;;;9.50;99.90;;;-144.05;85.88;125687.94;5030571;28;20183;-83
2023/01/05 07:20:16;;;;;;;34.30;8.52;;;9.50;99.90;;;-144.05;86.16;125687.94;5014876;28;20041;-83
2023/01/05 07:22:42;;;;;;;35.67;8.70;;;9.50;99.90;;;-144.05;86.32;125687.94;5014241;28;20029;-83
2023/01/05 07:25:09;;;;;;;35.55;8.10;;;9.50;99.90;;;-144.05;85.46;125687.94;5013949;28;20060;-81
2023/01/05 07:27:35;;;;;;;29.25;8.60;;;9.50;99.90;;;-144.05;86.11;125687.94;5015766;28;20037;-82
2023/01/05 07:30:00;;;;;;;30.77;8.25;;;9.50;99.90;;;-144.05;86.56;125687.94;5014414;28;20025;-82
2023/01/05 07:32:26;;;;;;;29.35;8.95;;;9.50;99.90;;;-144.05;86.67;125687.94;5013757;28;20076;-83
2023/01/05 07:34:52;;;;;;;29.23;9.10;;;9.50;99.90;;;-144.05;86.50;125687.94;5016270;28;20149;-83
2023/01/05 07:37:18;;;;;;;37.03;10.55;;;9.50;99.90;;;-144.05;87.13;125687.94;5014974;28;20026;-81
2023/01/05 07:39:44;;;;;;;29.15;8.05;;;9.50;99.90;;;-144.05;86.85;125687.94;5015378;28;20030;-81
2023/01/05 07:42:10;;;;;;;30.17;9.10;;;9.40;99.90;;;-144.05;86.48;125687.94;5015051;28;20037;-80
2023/01/05 07:44:36;;;;;;;28.33;9.07;;;9.50;99.90;;;-144.05;86.75;125687.94;5016188;28;20022;-80
2023/01/05 07:47:02;;;;;;;31.33;9.15;;;9.50;99.90;;;-144.05;86.28;125687.94;5017433;28;20036;-82
2023/01/05 07:49:28;;;;;;;34.00;8.93;;;9.50;99.90;;;-144.05;86.54;125687.94;5018849;28;20061;-80
2023/01/05 07:51:54;;;;;;;33.53;10.45;;;9.50;99.90;;;-144.05;86.07;125687.94;5034888;28;20026;-82
2023/01/05 07:54:20;;;;;;;32.35;9.40;;;9.50;99.90;;;-144.05;85.77;125687.94;5020247;28;20036;-81
2023/01/05 07:56:47;;;;;;;36.50;9.90;;;9.50;99.90;;;-144.05;86.30;125687.94;5019509;28;20030;-81
2023/01/05 07:59:13;;;;;;;30.67;10.05;;;9.60;99.90;;;-144.05;85.82;125687.94;5020239;28;20025;-82
2023/01/05 08:01:39;;;;;;;28.13;8.85;;;9.50;99.90;;;-144.05;85.89;125687.94;5020437;28;20026;-82
2023/01/05 08:04:05;;;;;;;22.95;8.25;;;9.50;99.90;;;-144.05;86.45;125687.94;5019331;28;20076;-83
2023/01/05 08:06:32;;;;;;;43.65;9.80;;;9.60;99.90;;;-144.05;86.27;125687.94;5020095;28;20053;-82
2023/01/05 08:10:27;;;;;;;26.85;8.93;;;9.60;99.90;;;-144.05;86.24;125687.94;5021215;28;20026;-82
2023/01/05 08:11:43;;;;;;;33.10;9.93;;;9.60;99.90;;;-144.05;86.82;125687.94;5019936;28;20029;-81
2023/01/05 08:14:09;;;;;;;39.92;12.05;;;9.60;99.90;;;-144.05;86.37;125687.94;5020372;28;20563;-81
2023/01/05 08:16:35;;;;;;;37.65;10.52;;;9.50;99.90;;;-144.05;85.91;125687.94;5019622;28;20069;-81
2023/01/05 08:19:01;;;;;;;27.98;9.32;;;9.50;99.90;;;-144.05;85.97;125687.94;5018557;28;20030;-81
2023/01/05 08:21:27;;;;;;;27.67;11.52;;;9.50;99.90;;;-144.05;85.47;125687.94;5017450;28;20524;-81
2023/01/05 08:23:53;;;;;;;33.70;11.15;;;9.50;99.90;;;-144.05;85.30;125687.94;5019217;28;20026;-82
2023/01/05 08:26:22;;;;;;;32.47;11.98;;;9.50;99.90;;;-144.05;85.03;125687.94;5019496;28;20069;-81
2023/01/05 08:28:51;;;;;;;38.10;12.48;;;9.60;99.90;;;-144.05;84.43;125687.94;5019829;28;20088;-82
2023/01/05 08:31:25;;;;;;;31.63;11.13;;;9.60;99.90;;;-144.05;84.57;125687.94;5017695;28;20029;-81
2023/01/05 08:33:56;;;;;;;37.13;11.80;;;9.70;99.90;;;-144.05;84.10;125687.94;5034489;28;20128;-82
2023/01/05 08:36:23;;;;;;;40.58;12.10;;;9.70;99.90;;;-144.05;83.84;125687.94;5018414;28;20084;-82
2023/01/05 08:38:54;;;;;;;45.92;13.27;;;9.70;99.90;;;-144.05;84.34;125687.94;5017033;28;20375;-81
2023/01/05 08:41:27;;;;;;;39.08;12.02;;;9.70;99.90;;;-144.05;83.93;125687.94;5017182;28;20493;-82
2023/01/05 08:43:59;;;;;;;33.67;12.73;;;9.70;99.90;;;-144.05;84.10;125687.94;5016420;28;20061;-81
2023/01/05 08:46:31;;;;;;;35.55;11.18;;;9.80;99.90;;;-144.05;84.98;125687.94;5016544;28;20065;-83
2023/01/05 08:49:02;;;;;;;41.90;11.15;;;9.80;99.90;;;-144.05;84.47;125687.94;5018527;28;20102;-82
2023/01/05 08:51:29;;;;;;;43.75;11.27;;;9.80;99.90;;;-144.05;85.04;125687.94;5017600;28;20547;-81
2023/01/05 08:53:56;;;;;;;41.42;10.52;;;9.80;99.90;;;-144.05;84.77;125687.94;5025517;28;20397;-83
2023/01/05 08:56:25;;;;;;;46.35;11.95;;;9.80;99.90;;;-144.05;84.66;125687.94;5017192;28;20034;-81
2023/01/05 08:58:57;;;;;;;40.20;10.77;;;9.80;99.90;;;-144.05;84.84;125687.94;5016886;28;20088;-83
2023/01/05 09:01:25;;;;;;;42.95;11.98;;;9.80;99.90;;;-144.05;85.06;125687.94;5017354;28;20486;-82
2023/01/05 09:03:50;;;;;;;38.97;10.30;;;9.80;99.90;;;-144.05;84.97;125687.94;5015961;28;20049;-82
2023/01/05 09:06:17;;;;;;;40.63;12.93;;;9.80;99.90;;;-144.05;84.48;125687.94;5017245;28;20034;-82
2023/01/05 09:08:45;;;;;;;39.72;11.40;;;9.90;99.90;;;-144.05;84.56;125687.94;5016501;28;20489;-81
2023/01/05 09:11:17;;;;;;;33.33;10.20;;;9.90;99.90;;;-144.05;83.77;125687.94;5015793;28;20120;-82
2023/01/05 09:13:53;;;;;;;32.35;9.55;;;10.00;99.90;;;-144.05;83.90;125687.94;5016903;28;20026;-83
2023/01/05 09:16:23;;;;;;;;;;;9.90;99.90;;;-144.05;83.81;125687.94;5042137;23;20037;-76
2023/01/05 09:18:50;;;;;;;42.28;11.05;;;9.90;99.90;;;-144.05;83.66;125687.94;5035974;28;19913;-76
2023/01/05 09:21:17;;;;;;;36.40;9.88;;;9.90;99.90;;;-144.05;83.35;125687.94;5035103;28;20033;-75
2023/01/05 09:23:43;;;;;;;42.70;10.10;;;9.90;99.90;;;-144.05;83.37;125687.94;5034481;28;20041;-77
2023/01/05 09:26:13;;;;;;;37.38;9.45;;;10.00;99.90;;;-144.05;83.84;125687.94;5035534;28;20025;-77
2023/01/05 09:28:39;;;;;;;31.63;9.60;;;10.00;99.90;;;-144.05;83.31;125687.94;5035039;28;20095;-77
2023/01/05 09:31:22;;;;;;;42.72;9.65;;;10.00;99.90;;;-144.05;83.01;125687.94;5036631;28;20029;-76
2023/01/05 09:33:48;;;;;;;33.60;9.63;;;10.10;99.90;;;-144.05;82.86;125687.94;5035496;28;20040;-77
2023/01/05 09:36:17;;;;;;;26.73;9.90;;;10.10;99.90;;;-144.05;82.29;125687.94;5037801;28;20032;-78
2023/01/05 09:38:53;;;;;;;36.15;8.07;;;10.10;99.90;;;-144.05;82.56;125687.94;5038465;28;20393;-76
2023/01/05 09:41:35;;;;;;;41.90;9.45;;;10.10;99.90;;;-144.05;82.24;125687.94;5037106;28;20021;-77
2023/01/05 09:44:16;;;;;;;38.65;8.57;;;10.10;99.90;;;-144.05;82.31;125687.94;5036044;28;20026;-76
2023/01/05 09:46:49;;;;;;;42.33;9.57;;;10.10;99.90;;;-144.05;82.35;125687.94;5036096;28;20128;-78
2023/01/05 09:49:21;;;;;;;32.65;8.90;;;10.10;99.90;;;-144.05;82.67;125687.94;5038704;28;20033;-76
2023/01/05 09:51:57;;;;;;;35.75;9.55;;;10.10;99.90;;;-144.05;82.48;125687.94;5037964;28;20040;-77
2023/01/05 09:54:31;;;;;;;39.95;9.30;;;10.20;99.90;;;-144.05;81.88;125687.94;5037581;28;20029;-76
2023/01/05 09:57:00;;;;;;;38.97;8.57;;;10.20;99.90;;;-144.05;81.66;125687.94;5037165;28;20037;-77
2023/01/05 09:59:42;;;;;;;30.75;9.10;;;10.20;99.90;;;-144.05;81.20;125687.94;5036805;28;20104;-76
2023/01/05 10:02:26;;;;;;;47.95;10.15;;;10.30;99.90;;;-144.05;81.13;125687.94;5038297;28;20021;-76
2023/01/05 10:04:54;;;;;;;36.17;9.15;;;10.40;99.90;;;-144.05;81.20;125687.94;5038327;28;20039;-77
2023/01/05 10:08:03;;;;;;;33.25;8.73;;;10.40;99.90;;;-144.05;80.72;125687.94;5036003;28;20057;-77
2023/01/05 10:14:25;;;;;;;38.35;10.25;;;10.40;99.90;;;-144.05;80.00;125687.94;5036600;28;20125;-76
2023/01/05 10:16:51;;;;;;;42.38;9.88;;;10.50;99.90;;;-144.05;79.35;125687.94;5036495;28;20102;-77
2023/01/05 10:19:20;;;;;;;34.40;9.18;;;10.50;99.90;;;-144.05;79.87;125687.94;5038054;28;20041;-76
2023/01/05 10:22:26;;;;;;;31.42;9.68;;;10.50;99.90;;;-144.05;79.49;125687.94;5035724;28;20386;-77
2023/01/05 10:25:12;;;;;;;37.85;9.93;;;10.60;99.90;;;-144.05;79.29;125687.94;5038118;28;20025;-76
2023/01/05 10:28:24;;;;;;;39.22;10.98;;;10.60;99.90;;;-144.05;78.58;125687.94;5037121;28;20036;-76
2023/01/05 10:31:18;;;;;;;41.33;10.15;;;10.60;99.90;;;-144.05;78.57;125687.94;5037422;28;20029;-76
2023/01/05 10:33:56;;;;;;;34.10;10.32;;;10.60;99.90;;;-144.05;78.87;125687.94;5035825;28;20503;-77
2023/01/05 10:36:56;;;;;;;35.05;10.70;;;10.50;99.90;;;-144.05;78.16;125687.94;5034732;28;20083;-77
2023/01/05 10:40:08;;;;;;;35.95;11.02;;;10.60;99.90;;;-144.05;78.17;125687.94;5041461;28;20029;-77
2023/01/05 10:43:32;;;;;;;38.78;9.82;;;10.60;99.90;;;-144.05;78.15;125687.94;5045832;28;20022;-77
2023/01/05 10:45:58;;;;;;;35.10;10.77;;;10.60;99.90;;;-144.05;78.05;125687.94;5038975;28;20453;-76
2023/01/05 10:48:34;;;;;;;34.53;11.80;;;10.60;99.90;;;-144.05;78.54;125687.94;5037348;28;20377;-78